createdAt,value
2018-07-02T00:00:32.688Z,46.50
2018-07-02T00:03:01.955Z,46.50
2018-07-02T00:05:42.452Z,46.60
2018-07-02T00:08:11.989Z,46.70
2018-07-02T00:13:21.539Z,47.00
2018-07-02T00:15:51.007Z,47.00
2018-07-02T00:18:20.685Z,47.80
2018-07-02T00:20:50.047Z,47.30
2018-07-02T00:23:19.935Z,47.40
2018-07-02T00:25:49.177Z,47.70
2018-07-02T00:28:19.745Z,47.70
2018-07-02T00:30:48.989Z,47.70
2018-07-02T00:33:29.542Z,47.80
2018-07-02T00:35:58.941Z,47.80
2018-07-02T00:38:28.173Z,48.00
2018-07-02T00:40:57.401Z,48.00
2018-07-02T00:43:26.704Z,48.10
2018-07-02T00:45:56.070Z,48.20
2018-07-02T00:48:25.876Z,48.30
2018-07-02T00:50:55.396Z,48.30
2018-07-02T00:53:24.756Z,48.40
2018-07-02T00:55:54.128Z,48.50
2018-07-02T00:58:23.778Z,48.60
2018-07-02T01:00:53.154Z,48.60
2018-07-02T01:03:23.364Z,48.70
2018-07-02T01:05:52.950Z,48.70
2018-07-02T01:08:39.806Z,48.80
2018-07-02T01:11:09.084Z,48.90
2018-07-02T01:13:38.334Z,48.70
2018-07-02T01:16:07.802Z,48.90
2018-07-02T01:18:37.563Z,49.00
2018-07-02T01:21:07.029Z,49.20
2018-07-02T01:23:36.312Z,49.20
2018-07-02T01:26:11.293Z,49.20
2018-07-02T01:28:56.893Z,49.20
2018-07-02T01:31:26.343Z,49.30
2018-07-02T01:33:55.699Z,49.40
2018-07-02T01:36:25.200Z,49.50
2018-07-02T01:38:54.773Z,49.60
2018-07-02T01:41:25.097Z,49.50
2018-07-02T01:43:54.415Z,49.50
2018-07-02T01:46:24.510Z,49.50
2018-07-02T01:48:53.939Z,49.50
2018-07-02T01:51:46.605Z,49.60
2018-07-02T01:54:16.030Z,49.50
2018-07-02T01:56:45.272Z,49.40
2018-07-02T01:59:14.509Z,49.50
2018-07-02T02:01:44.056Z,49.70
2018-07-02T02:04:13.563Z,49.90
2018-07-02T02:06:42.967Z,50.00
2018-07-02T02:09:12.568Z,50.00
2018-07-02T02:11:42.126Z,50.10
2018-07-02T02:14:11.527Z,50.10
2018-07-02T02:16:41.082Z,50.10
2018-07-02T02:19:10.397Z,50.30
2018-07-02T02:21:39.853Z,50.40
2018-07-02T02:24:09.289Z,50.60
2018-07-02T02:26:38.525Z,50.60
2018-07-02T02:29:07.793Z,50.60
2018-07-02T02:31:37.045Z,50.70
2018-07-02T02:34:06.382Z,50.60
2018-07-02T02:36:35.851Z,50.20
2018-07-02T02:39:07.519Z,50.00
2018-07-02T02:41:36.915Z,50.00
2018-07-02T02:44:07.167Z,50.10
2018-07-02T02:46:37.019Z,50.00
2018-07-02T02:49:06.616Z,50.10
2018-07-02T02:51:36.194Z,50.40
2018-07-02T02:54:05.763Z,50.60
2018-07-02T02:56:35.083Z,50.80
2018-07-02T02:59:04.393Z,50.80
2018-07-02T03:01:33.934Z,51.00
2018-07-02T03:04:03.385Z,51.30
2018-07-02T03:06:32.696Z,51.40
2018-07-02T03:09:02.072Z,51.50
2018-07-02T03:11:31.400Z,51.60
2018-07-02T03:14:01.009Z,51.80
2018-07-02T03:16:40.472Z,51.80
2018-07-02T03:19:09.873Z,51.80
2018-07-02T03:21:39.103Z,51.90
2018-07-02T03:24:08.365Z,52.10
2018-07-02T03:26:39.692Z,52.30
2018-07-02T03:29:08.919Z,52.40
2018-07-02T03:31:38.249Z,52.60
2018-07-02T03:34:07.627Z,52.60
2018-07-02T03:36:36.921Z,52.70
2018-07-02T03:42:05.920Z,53.10
2018-07-02T03:44:35.123Z,53.10
2018-07-02T03:47:04.599Z,53.10
2018-07-02T03:49:33.975Z,53.30
2018-07-02T03:52:03.278Z,53.40
2018-07-02T03:54:39.609Z,53.50
2018-07-02T03:57:08.920Z,53.60
2018-07-02T03:59:38.532Z,53.80
2018-07-02T04:02:16.896Z,53.80
2018-07-02T04:04:49.756Z,54.00
2018-07-02T04:07:19.029Z,54.00
2018-07-02T04:09:48.745Z,53.90
2018-07-02T04:12:18.005Z,53.90
2018-07-02T04:14:47.195Z,54.10
2018-07-02T04:17:16.489Z,54.10
2018-07-02T04:19:45.689Z,54.10
2018-07-02T04:22:14.980Z,54.30
2018-07-02T04:24:44.203Z,54.20
2018-07-02T04:27:13.505Z,54.10
2018-07-02T04:29:43.149Z,54.20
2018-07-02T04:32:12.384Z,54.10
2018-07-02T04:34:41.924Z,54.20
2018-07-02T04:39:40.474Z,54.20
2018-07-02T04:42:13.491Z,54.20
2018-07-02T04:47:23.691Z,54.10
2018-07-02T04:49:52.646Z,54.10
2018-07-02T04:52:23.948Z,54.10
2018-07-02T04:57:34.157Z,54.00
2018-07-02T05:00:03.951Z,54.00
2018-07-02T05:02:34.737Z,53.90
2018-07-02T05:05:04.413Z,54.00
2018-07-02T05:07:39.895Z,54.00
2018-07-02T05:10:09.302Z,53.90
2018-07-02T05:12:38.582Z,53.90
2018-07-02T05:15:08.333Z,53.80
2018-07-02T05:17:37.659Z,53.70
2018-07-02T05:20:07.105Z,53.70
2018-07-02T05:22:36.401Z,53.70
2018-07-02T05:25:06.680Z,53.60
2018-07-02T05:27:36.237Z,53.50
2018-07-02T05:30:05.682Z,53.60
2018-07-02T05:32:35.513Z,53.50
2018-07-02T05:35:05.363Z,53.40
2018-07-02T05:37:40.582Z,53.20
2018-07-02T05:43:07.264Z,52.90
2018-07-02T05:45:36.802Z,52.70
2018-07-02T05:48:06.780Z,52.90
2018-07-02T05:50:37.058Z,52.80
2018-07-02T05:55:39.089Z,52.60
2018-07-02T05:58:08.334Z,52.50
2018-07-02T06:00:38.261Z,52.40
2018-07-02T06:03:07.862Z,52.30
2018-07-02T06:05:37.376Z,52.10
2018-07-02T06:08:06.710Z,52.00
2018-07-02T06:10:36.235Z,51.90
2018-07-02T06:13:05.580Z,51.70
2018-07-02T06:15:53.543Z,51.80
2018-07-02T06:18:23.132Z,51.60
2018-07-02T06:20:52.584Z,52.10
2018-07-02T06:23:22.075Z,51.50
2018-07-02T06:25:52.334Z,51.30
2018-07-02T06:28:24.051Z,51.30
2018-07-02T06:30:53.462Z,50.90
2018-07-02T06:33:22.920Z,50.80
2018-07-02T06:35:52.708Z,50.60
2018-07-02T06:38:22.283Z,51.10
2018-07-02T06:40:51.831Z,50.40
2018-07-02T06:43:21.756Z,50.20
2018-07-02T06:45:52.023Z,50.20
2018-07-02T06:48:21.333Z,50.00
2018-07-02T06:50:55.494Z,50.00
2018-07-02T06:53:25.256Z,49.80
2018-07-02T06:55:54.604Z,49.70
2018-07-02T07:01:39.088Z,49.40
2018-07-02T07:04:26.928Z,49.10
2018-07-02T07:06:56.147Z,49.00
2018-07-02T07:11:54.255Z,48.80
2018-07-02T07:16:53.318Z,48.40
2018-07-02T07:19:22.925Z,48.30
2018-07-02T07:21:53.050Z,48.20
2018-07-02T07:24:25.511Z,47.90
2018-07-02T07:26:54.825Z,47.70
2018-07-02T07:29:24.897Z,47.50
2018-07-02T07:31:54.531Z,47.50
2018-07-02T07:34:23.894Z,47.20
2018-07-02T07:39:21.968Z,46.50
2018-07-02T07:41:52.084Z,46.40
2018-07-02T07:44:21.717Z,46.40
2018-07-02T07:46:51.603Z,46.30
2018-07-02T07:49:21.150Z,46.20
2018-07-02T08:01:05.717Z,45.70
2018-07-02T08:03:34.956Z,45.30
2018-07-02T08:06:04.241Z,44.70
2018-07-02T08:08:33.989Z,44.50
2018-07-02T08:11:03.659Z,44.60
2018-07-02T08:13:33.061Z,44.30
2018-07-02T08:16:02.461Z,44.30
2018-07-02T08:18:32.139Z,43.80
2018-07-02T08:21:01.442Z,43.50
2018-07-02T08:23:31.018Z,43.20
2018-07-02T08:26:00.530Z,43.00
2018-07-02T08:28:31.062Z,42.30
2018-07-02T08:31:02.643Z,41.90
2018-07-02T08:33:33.623Z,41.70
2018-07-02T08:36:05.158Z,41.60
2018-07-02T08:38:34.800Z,41.10
2018-07-02T08:41:04.360Z,40.80
2018-07-02T08:43:33.571Z,40.50
2018-07-02T08:46:05.456Z,40.10
2018-07-02T08:48:36.942Z,39.50
2018-07-02T08:51:07.060Z,39.80
2018-07-02T08:53:36.337Z,39.70
2018-07-02T08:56:05.672Z,39.90
2018-07-02T08:58:35.343Z,40.00
2018-07-02T09:01:05.315Z,40.10
2018-07-02T09:03:36.744Z,39.50
2018-07-02T09:06:07.812Z,39.50
2018-07-02T09:08:49.219Z,39.50
2018-07-02T09:11:19.427Z,39.40
2018-07-02T09:13:50.010Z,39.80
2018-07-02T09:16:22.808Z,39.70
2018-07-02T09:18:54.051Z,39.70
2018-07-02T09:21:28.856Z,39.40
2018-07-02T09:23:58.375Z,39.80
2018-07-02T09:26:40.790Z,39.90
2018-07-02T09:32:11.861Z,39.80
2018-07-02T09:34:48.125Z,39.80
2018-07-02T09:37:18.330Z,39.40
2018-07-02T09:39:48.522Z,39.40
2018-07-02T09:42:19.658Z,39.90
2018-07-02T09:44:52.796Z,39.00
2018-07-02T09:47:25.872Z,38.70
2018-07-02T09:49:57.260Z,38.40
2018-07-02T09:52:28.910Z,38.30
2018-07-02T09:55:00.787Z,37.50
2018-07-02T09:57:40.847Z,37.40
2018-07-02T10:02:51.327Z,36.90
2018-07-02T10:08:17.660Z,37.50
2018-07-02T10:11:05.696Z,37.20
2018-07-02T10:16:37.970Z,36.90
2018-07-02T10:19:08.200Z,36.80
2018-07-02T10:21:37.462Z,36.50
2018-07-02T10:24:23.284Z,36.50
2018-07-02T10:26:55.857Z,36.60
2018-07-02T10:29:25.743Z,36.70
2018-07-02T10:32:31.889Z,36.20
2018-07-02T10:35:20.744Z,35.80
2018-07-02T10:37:51.658Z,36.30
2018-07-02T10:40:21.273Z,36.80
2018-07-02T10:42:51.760Z,37.10
2018-07-02T10:45:22.008Z,37.00
2018-07-02T10:47:53.958Z,36.90
2018-07-02T10:50:24.787Z,36.80
2018-07-02T10:52:58.632Z,36.60
2018-07-02T10:55:29.269Z,36.40
2018-07-02T10:57:59.614Z,36.30
2018-07-02T11:00:29.676Z,35.80
2018-07-02T11:02:59.810Z,35.70
2018-07-02T11:05:34.569Z,35.80
2018-07-02T11:08:05.922Z,36.50
2018-07-02T11:10:35.983Z,36.00
2018-07-02T11:13:21.682Z,36.00
2018-07-02T11:15:52.938Z,36.00
2018-07-02T11:18:23.210Z,35.90
2018-07-02T11:20:53.972Z,35.50
2018-07-02T11:23:23.374Z,35.40
2018-07-02T11:25:53.719Z,35.50
2018-07-02T11:28:23.516Z,35.30
2018-07-02T11:30:57.296Z,35.30
2018-07-02T11:35:56.003Z,35.60
2018-07-02T11:38:33.553Z,35.60
2018-07-02T11:41:03.352Z,35.10
2018-07-02T11:43:34.599Z,34.30
2018-07-02T11:46:04.996Z,33.50
2018-07-02T11:48:41.734Z,32.70
2018-07-02T11:51:14.205Z,31.40
2018-07-02T11:53:53.941Z,30.40
2018-07-02T11:56:29.365Z,29.70
2018-07-02T11:58:59.096Z,29.30
2018-07-02T12:01:28.492Z,29.00
2018-07-02T12:04:00.190Z,28.50
2018-07-02T12:06:30.558Z,27.90
2018-07-02T12:09:02.475Z,27.20
2018-07-02T12:11:32.020Z,26.70
2018-07-02T12:14:03.500Z,26.30
2018-07-02T12:16:33.326Z,25.90
2018-07-02T12:19:02.920Z,25.60
2018-07-02T12:27:12.195Z,24.80
2018-07-02T12:29:42.632Z,24.30
2018-07-02T12:35:28.409Z,23.70
2018-07-02T12:38:17.860Z,23.50
2018-07-02T12:41:35.332Z,23.60
2018-07-02T12:44:19.837Z,23.30
2018-07-02T12:47:01.884Z,22.70
2018-07-02T12:49:51.389Z,22.40
2018-07-02T12:58:27.604Z,22.30
2018-07-02T13:10:22.762Z,21.80
2018-07-02T13:13:03.862Z,21.50
2018-07-02T13:15:53.149Z,21.60
2018-07-02T13:26:55.077Z,21.30
2018-07-02T13:34:57.764Z,21.10
2018-07-02T13:37:38.509Z,21.20
2018-07-02T13:43:10.162Z,21.70
2018-07-02T13:48:35.487Z,21.00
2018-07-02T13:51:05.286Z,21.20
2018-07-02T13:53:36.642Z,21.20
2018-07-02T13:56:07.162Z,20.90
2018-07-02T13:58:37.399Z,21.10
2018-07-02T14:01:09.663Z,21.20
2018-07-02T14:03:38.992Z,21.00
2018-07-02T14:06:08.268Z,20.90
2018-07-02T14:08:38.120Z,20.80
2018-07-02T14:11:07.573Z,21.10
2018-07-02T14:13:37.669Z,21.00
2018-07-02T14:16:11.024Z,20.80
2018-07-02T14:18:40.609Z,20.60
2018-07-02T14:21:10.129Z,20.80
2018-07-02T14:23:39.730Z,20.60
2018-07-02T14:26:09.082Z,20.50
2018-07-02T14:28:38.637Z,20.40
2018-07-02T14:33:37.418Z,20.50
2018-07-02T14:36:07.427Z,20.20
2018-07-02T14:38:37.168Z,20.20
2018-07-02T14:41:24.833Z,20.20
2018-07-02T14:43:54.785Z,20.00
2018-07-02T14:46:24.163Z,20.20
2018-07-02T14:48:55.139Z,20.40
2018-07-02T14:51:24.659Z,20.50
2018-07-02T14:53:54.747Z,20.30
2018-07-02T14:56:24.149Z,20.50
2018-07-02T14:58:53.608Z,20.40
2018-07-02T15:01:23.013Z,20.40
2018-07-02T15:03:55.290Z,20.60
2018-07-02T15:06:25.404Z,20.60
2018-07-02T15:08:55.015Z,20.60
2018-07-02T15:11:24.945Z,20.30
2018-07-02T15:13:55.030Z,20.90
2018-07-02T15:16:25.561Z,20.50
2018-07-02T15:18:55.161Z,20.30
2018-07-02T15:21:25.556Z,20.30
2018-07-02T15:23:56.145Z,20.40
2018-07-02T15:26:33.193Z,20.40
2018-07-02T15:29:03.155Z,20.40
2018-07-02T15:31:32.534Z,20.40
2018-07-02T15:34:02.458Z,20.10
2018-07-02T15:36:34.968Z,20.20
2018-07-02T15:41:41.911Z,19.90
2018-07-02T15:44:11.270Z,20.00
2018-07-02T15:46:42.566Z,20.10
2018-07-02T15:49:12.885Z,20.30
2018-07-02T15:51:42.387Z,20.70
2018-07-02T15:54:14.073Z,20.50
2018-07-02T15:56:44.470Z,20.40
2018-07-02T15:59:15.209Z,20.50
2018-07-02T16:01:44.950Z,20.60
2018-07-02T16:04:14.721Z,20.50
2018-07-02T16:06:45.493Z,20.30
2018-07-02T16:09:16.108Z,20.40
2018-07-02T16:11:48.198Z,20.20
2018-07-02T16:14:17.822Z,20.10
2018-07-02T16:16:47.678Z,20.00
2018-07-02T16:19:18.561Z,20.20
2018-07-02T16:21:48.766Z,20.20
2018-07-02T16:24:18.342Z,20.30
2018-07-02T16:26:53.247Z,20.10
2018-07-02T16:29:27.783Z,20.00
2018-07-02T16:32:04.611Z,20.10
2018-07-02T16:34:34.309Z,20.10
2018-07-02T16:37:03.753Z,20.00
2018-07-02T16:39:34.696Z,20.00
2018-07-02T16:42:10.794Z,20.60
2018-07-02T16:44:41.185Z,20.20
2018-07-02T16:47:10.889Z,20.30
2018-07-02T16:49:50.131Z,20.40
2018-07-02T16:52:24.192Z,20.50
2018-07-02T16:54:58.325Z,20.70
2018-07-02T16:57:28.161Z,20.90
2018-07-02T17:02:34.426Z,21.00
2018-07-02T17:10:43.700Z,21.00
2018-07-02T17:13:13.160Z,21.30
2018-07-02T17:15:44.462Z,21.40
2018-07-02T17:20:59.099Z,21.40
2018-07-02T17:26:28.959Z,21.40
2018-07-02T17:28:58.803Z,21.90
2018-07-02T17:31:54.479Z,21.90
2018-07-02T17:34:55.108Z,22.00
2018-07-02T17:37:24.669Z,22.00
2018-07-02T17:39:58.471Z,22.00
2018-07-02T17:42:28.342Z,21.90
2018-07-02T17:48:00.309Z,22.20
2018-07-02T17:50:30.451Z,21.90
2018-07-02T17:52:59.888Z,22.10
2018-07-02T17:55:30.564Z,22.20
2018-07-02T17:58:00.563Z,22.20
2018-07-02T18:00:39.522Z,22.20
2018-07-02T18:03:41.840Z,22.10
2018-07-02T18:07:35.610Z,22.30
2018-07-02T18:10:08.372Z,22.40
2018-07-02T18:12:38.353Z,22.60
2018-07-02T18:15:08.069Z,22.90
2018-07-02T18:20:27.678Z,23.70
2018-07-02T18:25:36.745Z,23.90
2018-07-02T18:28:07.398Z,24.00
2018-07-02T18:30:38.416Z,24.10
2018-07-02T18:33:08.717Z,24.30
2018-07-02T18:35:38.990Z,24.30
2018-07-02T18:38:09.537Z,24.30
2018-07-02T18:40:40.492Z,24.40
2018-07-02T18:43:11.139Z,24.50
2018-07-02T18:45:42.856Z,24.70
2018-07-02T18:48:14.501Z,24.80
2018-07-02T18:50:44.612Z,25.20
2018-07-02T18:53:15.236Z,25.40
2018-07-02T18:55:45.181Z,25.80
2018-07-02T18:58:15.451Z,26.20
2018-07-02T19:00:45.860Z,26.40
2018-07-02T19:03:18.621Z,26.70
2018-07-02T19:05:48.998Z,26.90
2018-07-02T19:08:22.730Z,27.30
2018-07-02T19:10:54.482Z,27.60
2018-07-02T19:13:26.279Z,28.00
2018-07-02T19:15:59.075Z,28.30
2018-07-02T19:18:30.905Z,28.70
2018-07-02T19:21:02.273Z,28.90
2018-07-02T19:23:35.094Z,29.00
2018-07-02T19:26:07.277Z,29.30
2018-07-02T19:28:40.099Z,29.60
2018-07-02T19:31:12.407Z,29.90
2018-07-02T19:33:44.334Z,29.90
2018-07-02T19:36:16.165Z,30.00
2018-07-02T19:38:47.549Z,30.50
2018-07-02T19:41:20.761Z,30.50
2018-07-02T19:43:53.114Z,30.70
2018-07-02T19:46:23.956Z,31.00
2018-07-02T19:48:54.611Z,31.20
2018-07-02T19:51:26.085Z,31.50
2018-07-02T20:00:05.835Z,31.90
2018-07-02T20:02:58.507Z,32.10
2018-07-02T20:05:35.130Z,32.40
2018-07-02T20:11:02.279Z,32.80
2018-07-02T20:13:32.022Z,33.00
2018-07-02T20:16:02.875Z,33.30
2018-07-02T20:18:33.299Z,33.70
2018-07-02T20:21:09.855Z,33.90
2018-07-02T20:23:42.530Z,34.10
2018-07-02T20:26:15.382Z,34.20
2018-07-02T20:28:45.973Z,35.30
2018-07-02T20:31:15.996Z,35.00
2018-07-02T20:33:45.884Z,35.10
2018-07-02T20:36:16.231Z,35.20
2018-07-02T20:38:46.043Z,35.30
2018-07-02T20:41:15.832Z,35.30
2018-07-02T20:43:45.655Z,35.40
2018-07-02T20:46:15.479Z,35.50
2018-07-02T20:48:45.439Z,35.90
2018-07-02T20:51:15.593Z,36.10
2018-07-02T20:53:45.561Z,36.10
2018-07-02T20:56:19.875Z,36.30
2018-07-02T20:58:49.718Z,36.40
2018-07-02T21:01:20.488Z,36.50
2018-07-02T21:06:27.080Z,37.10
2018-07-02T21:08:56.781Z,38.00
2018-07-02T21:11:30.613Z,37.30
2018-07-02T21:14:00.255Z,37.40
2018-07-02T21:16:29.739Z,37.60
2018-07-02T21:19:05.872Z,37.70
2018-07-02T21:21:35.280Z,38.00
2018-07-02T21:24:04.944Z,38.00
2018-07-02T21:26:46.370Z,38.20
2018-07-02T21:29:15.646Z,38.30
2018-07-02T21:31:45.754Z,38.50
2018-07-02T21:34:15.670Z,38.70
2018-07-02T21:36:45.188Z,38.90
2018-07-02T21:39:14.714Z,39.10
2018-07-02T21:41:51.480Z,39.10
2018-07-02T21:44:22.007Z,39.30
2018-07-02T21:47:01.516Z,40.20
2018-07-02T21:49:31.291Z,39.50
2018-07-02T21:52:00.736Z,39.80
2018-07-02T21:54:30.209Z,39.70
2018-07-02T21:56:59.754Z,40.00
2018-07-02T21:59:29.269Z,40.00
2018-07-02T22:01:58.572Z,40.20
2018-07-02T22:04:28.041Z,40.20
2018-07-02T22:06:57.438Z,40.30
2018-07-02T22:09:26.909Z,40.50
2018-07-02T22:11:56.374Z,40.60
2018-07-02T22:14:25.800Z,40.80
2018-07-02T22:16:55.195Z,41.00
2018-07-02T22:19:24.919Z,40.90
2018-07-02T22:21:54.800Z,41.10
2018-07-02T22:24:28.848Z,41.10
2018-07-02T22:26:58.310Z,41.20
2018-07-02T22:29:27.774Z,41.30
2018-07-02T22:31:57.397Z,41.60
2018-07-02T22:34:26.977Z,41.70
2018-07-02T22:36:56.337Z,41.80
2018-07-02T22:39:26.139Z,41.90
2018-07-02T22:41:59.703Z,42.10
2018-07-02T22:44:29.129Z,42.10
2018-07-02T22:46:58.554Z,42.20
2018-07-02T22:49:28.045Z,42.50
2018-07-02T22:51:57.776Z,42.60
2018-07-02T22:54:27.475Z,42.80
2018-07-02T22:56:58.017Z,42.90
2018-07-02T22:59:27.680Z,43.00
2018-07-02T23:01:57.062Z,43.00
2018-07-02T23:04:27.136Z,43.00
2018-07-02T23:06:56.524Z,43.20
2018-07-02T23:09:29.680Z,43.30
2018-07-02T23:11:59.239Z,43.40
2018-07-02T23:14:28.635Z,43.50
2018-07-02T23:19:53.481Z,43.80
2018-07-02T23:22:23.404Z,43.90
2018-07-02T23:24:58.409Z,44.10
2018-07-02T23:27:27.973Z,44.30
2018-07-02T23:29:57.384Z,44.40
2018-07-02T23:32:27.737Z,44.50
2018-07-02T23:34:57.167Z,44.70
2018-07-02T23:37:37.512Z,44.80
2018-07-02T23:40:07.291Z,44.80
2018-07-02T23:42:36.694Z,44.90
2018-07-02T23:45:10.822Z,44.90
2018-07-02T23:47:40.537Z,45.00
2018-07-02T23:50:09.992Z,45.20
2018-07-02T23:52:39.555Z,45.20
2018-07-02T23:55:08.962Z,45.40
2018-07-02T23:57:38.436Z,45.40
